Aniara — SKJC — position and weather

sailwx.info

Track history (hours):
 
Tides and Currents Weather Stations Pressure Air Temp Water Temp Dewpoint Dewpoint Depression Visibility Wind Speed Wind Dir Waves Ship Positions

Aniara

Last reported at 2017-Feb-18 21:33 UTC. Time now 2017-Feb-20 06:31 UTC.
Position N 36°56' E 013°32'.

Length 232 m; draft 9.5 m.

Type: Cargo ship. MMSI: 266282000.

Date/timePositionNaut miles runAvg speedWind from/ knotsBaromVisibWave heightAir tempDewpointWater temp
2017-Feb-18 21:33N 36°56' E 013°32'1615.6
2017-Feb-18 20:33N 36°51' E 013°50'1615.8
2017-Feb-18 19:33N 36°47' E 014°09'1615.6
2017-Feb-18 18:33N 36°42' E 014°28'  
2017-Feb-15 14:33N 37°38' E 023°48'1615.6
2017-Feb-15 13:34N 37°50' E 023°37'7 7.2
2017-Feb-15 12:33N 37°58' E 023°36'0 0.0
2017-Feb-15 11:31N 37°58' E 023°36'0 0.0
2017-Feb-15 10:31N 37°58' E 023°36'0 0.0
2017-Feb-15 09:31N 37°58' E 023°36'0 0.0
2017-Feb-15 08:31N 37°58' E 023°36'0 0.0
2017-Feb-15 07:31N 37°58' E 023°36'0 0.0
2017-Feb-15 06:33N 37°58' E 023°36'3 2.8
2017-Feb-15 05:33N 37°55' E 023°36'0 0.4
2017-Feb-15 04:33N 37°55' E 023°36'6 6.3
2017-Feb-15 03:33N 37°50' E 023°40'6 6.4
2017-Feb-15 02:33N 37°44' E 023°44'  
Track history (hours):
 
Tides and Currents Weather Stations Pressure Air Temp Water Temp Dewpoint Dewpoint Depression Visibility Wind Speed Wind Dir Waves Ship Positions

Aniara

Last reported at 2017-Feb-18 21:33 UTC. Time now 2017-Feb-20 06:31 UTC.
Position N 36°56' E 013°32'.

Length 232 m; draft 9.5 m.

Type: Cargo ship. MMSI: 266282000.

Date/timePositionNaut miles runAvg speedWind from/ knotsBaromVisibWave heightAir tempDewpointWater temp
2017-Feb-18 21:33N 36°56' E 013°32'1615.6
2017-Feb-18 20:33N 36°51' E 013°50'1615.8
2017-Feb-18 19:33N 36°47' E 014°09'1615.6
2017-Feb-18 18:33N 36°42' E 014°28'  
2017-Feb-15 14:33N 37°38' E 023°48'1615.6
2017-Feb-15 13:34N 37°50' E 023°37'7 7.2
2017-Feb-15 12:33N 37°58' E 023°36'0 0.0
2017-Feb-15 11:31N 37°58' E 023°36'0 0.0
2017-Feb-15 10:31N 37°58' E 023°36'0 0.0
2017-Feb-15 09:31N 37°58' E 023°36'0 0.0
2017-Feb-15 08:31N 37°58' E 023°36'0 0.0
2017-Feb-15 07:31N 37°58' E 023°36'0 0.0
2017-Feb-15 06:33N 37°58' E 023°36'3 2.8
2017-Feb-15 05:33N 37°55' E 023°36'0 0.4
2017-Feb-15 04:33N 37°55' E 023°36'6 6.3
2017-Feb-15 03:33N 37°50' E 023°40'6 6.4
2017-Feb-15 02:33N 37°44' E 023°44'  

Dump ship's entire track history